Time;durP1;ratioP1;P1;durP2;ratioP2;P2;SDS_P1;SDS_P2;PMS_P1;PMS_P2;Temp;Humidity;BMP_temperature;BMP_pressure;BME280_temperature;BME280_humidity;BME280_pressure;Samples;Min_cycle;Max_cycle;Signal;HPM_P1;HPM_P2
2022/09/02 00:00:25;;;;;;;2.75;1.50;;;15.60;99.90;;;;;;5007559;28;20053;-73
2022/09/02 00:02:51;;;;;;;4.38;1.70;;;15.60;99.90;;;;;;5031898;28;20057;-74
2022/09/02 00:05:18;;;;;;;5.65;1.50;;;15.50;99.90;;;;;;5030808;28;20045;-73
2022/09/02 00:07:44;;;;;;;3.45;1.30;;;15.50;99.90;;;;;;5029974;28;20045;-73
2022/09/02 00:10:10;;;;;;;4.65;1.42;;;15.50;99.90;;;;;;5012712;28;20046;-72
2022/09/02 00:12:36;;;;;;;5.20;1.30;;;15.50;99.90;;;;;;5027404;28;20068;-73
2022/09/02 00:15:05;;;;;;;2.63;1.50;;;15.40;99.90;;;;;;5025668;28;20049;-74
2022/09/02 00:17:30;;;;;;;5.25;1.52;;;15.40;99.90;;;;;;5013771;28;20044;-72
2022/09/02 00:20:04;;;;;;;3.45;1.55;;;15.30;99.90;;;;;;5031613;28;20420;-73
2022/09/02 00:22:30;;;;;;;3.40;1.65;;;15.30;99.90;;;;;;5029266;28;20056;-72
2022/09/02 00:24:55;;;;;;;3.78;1.70;;;15.30;99.90;;;;;;5024967;28;20045;-73
2022/09/02 00:27:22;;;;;;;7.15;2.20;;;15.20;99.90;;;;;;5018664;28;20045;-74
2022/09/02 00:29:48;;;;;;;2.97;2.00;;;15.20;99.90;;;;;;5014416;28;20041;-73
2022/09/02 00:32:14;;;;;;;5.07;2.30;;;15.20;99.90;;;;;;5018498;28;20064;-72
2022/09/02 00:34:39;;;;;;;5.82;2.40;;;15.10;99.90;;;;;;5021575;28;20057;-73
2022/09/02 00:37:05;;;;;;;5.68;2.33;;;15.10;99.90;;;;;;5029454;28;20049;-73
2022/09/02 00:39:31;;;;;;;6.55;2.20;;;15.10;99.90;;;;;;5023202;28;20525;-73
2022/09/02 00:41:57;;;;;;;4.22;2.22;;;15.00;99.90;;;;;;5017016;28;20042;-73
2022/09/02 00:44:26;;;;;;;6.43;2.28;;;15.00;99.90;;;;;;5029231;28;21702;-73
2022/09/02 00:46:54;;;;;;;2.25;1.85;;;15.00;99.90;;;;;;5026710;28;20047;-73
2022/09/02 00:49:27;;;;;;;5.90;1.98;;;15.00;99.90;;;;;;5011069;28;20049;-71
2022/09/02 00:52:12;;;;;;;5.35;1.90;;;14.90;99.90;;;;;;5014714;28;20057;-73
2022/09/02 00:54:47;;;;;;;2.25;1.55;;;14.90;99.90;;;;;;5028973;28;20103;-73
2022/09/02 00:57:18;;;;;;;4.30;1.90;;;14.90;99.90;;;;;;4999969;28;20054;-71
2022/09/02 01:00:10;;;;;;;3.25;1.95;;;14.90;99.90;;;;;;4995931;28;20046;-71
2022/09/02 01:02:38;;;;;;;7.55;2.13;;;14.90;99.90;;;;;;4991545;28;20663;-72
2022/09/02 01:05:08;;;;;;;6.32;2.58;;;14.70;99.90;;;;;;5003698;28;20121;-73
2022/09/02 01:07:37;;;;;;;3.75;2.50;;;14.80;99.90;;;;;;5002569;28;20045;-72
2022/09/02 01:10:09;;;;;;;4.43;2.20;;;14.70;99.90;;;;;;5004923;28;20496;-74
2022/09/02 01:12:35;;;;;;;3.83;2.30;;;14.70;99.90;;;;;;5003776;28;20046;-72
2022/09/02 01:15:03;;;;;;;6.13;2.65;;;14.70;99.90;;;;;;5002184;28;20121;-72
2022/09/02 01:17:33;;;;;;;7.50;2.33;;;14.70;99.90;;;;;;5005657;28;20065;-73
2022/09/02 01:20:07;;;;;;;8.02;2.35;;;14.60;99.90;;;;;;4991258;28;20109;-72
2022/09/02 01:22:33;;;;;;;5.28;2.42;;;14.60;99.90;;;;;;4988926;28;20042;-72
2022/09/02 01:25:11;;;;;;;3.28;2.42;;;14.60;99.90;;;;;;4989834;28;20133;-71
2022/09/02 01:27:37;;;;;;;5.55;2.50;;;14.60;99.90;;;;;;4993261;28;20048;-72
2022/09/02 01:30:05;;;;;;;3.55;2.40;;;14.50;99.90;;;;;;5000525;28;20046;-72
2022/09/02 01:32:30;;;;;;;3.55;2.30;;;14.50;99.90;;;;;;4988063;28;20093;-74
2022/09/02 01:34:56;;;;;;;4.53;2.05;;;14.50;99.90;;;;;;4991361;28;20437;-71
2022/09/02 01:37:23;;;;;;;3.78;2.20;;;14.40;99.90;;;;;;5001612;28;20041;-72
2022/09/02 01:39:51;;;;;;;4.50;2.47;;;14.40;99.90;;;;;;5000719;28;20054;-73
2022/09/02 01:42:19;;;;;;;3.40;2.70;;;14.40;99.90;;;;;;5001038;28;20104;-72
2022/09/02 01:44:47;;;;;;;5.97;2.90;;;14.40;99.90;;;;;;4982235;28;20042;-72
2022/09/02 01:47:20;;;;;;;5.20;2.50;;;14.40;99.90;;;;;;4993295;28;20096;-73
2022/09/02 01:49:46;;;;;;;7.57;2.50;;;14.30;99.90;;;;;;4997574;28;20108;-73
2022/09/02 01:52:13;;;;;;;3.28;2.53;;;14.30;99.90;;;;;;5006368;28;20041;-71
2022/09/02 01:54:39;;;;;;;2.95;2.10;;;14.20;99.90;;;;;;4996349;28;20332;-73
2022/09/02 01:57:08;;;;;;;4.68;1.80;;;14.20;99.90;;;;;;5001678;28;20085;-72
2022/09/02 01:59:33;;;;;;;6.82;2.20;;;14.20;99.90;;;;;;5007608;28;20521;-72
2022/09/02 02:01:59;;;;;;;8.25;2.97;;;14.10;99.90;;;;;;4984345;28;20046;-72
2022/09/02 02:04:25;;;;;;;2.45;1.60;;;14.10;99.90;;;;;;5007828;28;20060;-72
2022/09/02 02:06:51;;;;;;;3.45;1.90;;;14.10;99.90;;;;;;5011713;28;20057;-73
2022/09/02 02:09:17;;;;;;;4.22;2.22;;;14.10;99.90;;;;;;5009575;28;20045;-74
2022/09/02 02:11:44;;;;;;;5.97;1.83;;;14.00;99.90;;;;;;5009561;28;20034;-73
2022/09/02 02:14:17;;;;;;;3.67;1.70;;;14.00;99.90;;;;;;5007384;28;20147;-73
2022/09/02 02:16:43;;;;;;;8.95;1.80;;;14.00;99.90;;;;;;5007210;28;20048;-71
2022/09/02 02:19:08;;;;;;;3.53;1.60;;;14.00;99.90;;;;;;4998082;28;20042;-71
2022/09/02 02:21:34;;;;;;;2.92;1.70;;;13.90;99.90;;;;;;5006806;28;20049;-72
2022/09/02 02:24:00;;;;;;;2.30;1.60;;;13.90;99.90;;;;;;5010112;28;20653;-72
2022/09/02 02:26:27;;;;;;;4.45;1.90;;;13.90;99.90;;;;;;4989939;28;20157;-73
2022/09/02 02:28:53;;;;;;;4.38;1.70;;;13.90;99.90;;;;;;5004865;28;20056;-72
2022/09/02 02:31:19;;;;;;;4.50;1.73;;;13.70;99.90;;;;;;5002640;28;20042;-72
2022/09/02 02:33:48;;;;;;;3.97;1.70;;;13.80;99.90;;;;;;5000876;28;20564;-72
2022/09/02 02:36:14;;;;;;;4.28;1.95;;;13.80;99.90;;;;;;5011124;28;20457;-73
2022/09/02 02:38:48;;;;;;;3.50;1.90;;;13.80;99.90;;;;;;5000514;28;20401;-73
2022/09/02 02:41:14;;;;;;;8.43;1.80;;;13.70;99.90;;;;;;5000612;28;20038;-73
2022/09/02 02:43:41;;;;;;;3.90;1.60;;;13.70;99.90;;;;;;5005855;28;20577;-72
2022/09/02 02:46:07;;;;;;;3.15;1.92;;;13.70;99.90;;;;;;4999294;28;20060;-72
2022/09/02 02:48:36;;;;;;;3.22;1.80;;;13.70;99.90;;;;;;4989728;28;20041;-72
2022/09/02 02:51:02;;;;;;;2.88;2.10;;;13.60;99.90;;;;;;5010539;28;20283;-71
2022/09/02 02:53:30;;;;;;;3.20;1.83;;;13.60;99.90;;;;;;5006825;28;20394;-73
2022/09/02 02:55:59;;;;;;;3.53;1.90;;;13.60;99.90;;;;;;5008039;28;20112;-71
2022/09/02 02:58:25;;;;;;;6.25;2.05;;;13.60;99.90;;;;;;5004758;28;20100;-73
2022/09/02 03:00:51;;;;;;;6.25;1.90;;;13.50;99.90;;;;;;5010382;28;20052;-73
2022/09/02 03:03:18;;;;;;;5.18;2.25;;;13.50;99.90;;;;;;5002605;28;20038;-73
2022/09/02 03:05:46;;;;;;;2.80;1.80;;;13.50;99.90;;;;;;5003908;28;20045;-72
2022/09/02 03:08:12;;;;;;;4.03;1.90;;;13.50;99.90;;;;;;5012647;28;20223;-72
2022/09/02 03:10:40;;;;;;;3.13;1.90;;;13.50;99.90;;;;;;5007703;28;20556;-72
2022/09/02 03:13:08;;;;;;;4.85;2.10;;;13.40;99.90;;;;;;5007466;28;20168;-73
2022/09/02 03:15:35;;;;;;;3.33;2.15;;;13.40;99.90;;;;;;5006614;28;20034;-73
2022/09/02 03:18:02;;;;;;;2.88;1.90;;;13.40;99.90;;;;;;5010552;28;20038;-71
2022/09/02 03:20:27;;;;;;;7.10;1.83;;;13.40;99.90;;;;;;4992119;28;20041;-72
2022/09/02 03:22:55;;;;;;;2.63;1.80;;;13.40;99.90;;;;;;5007366;28;20043;-71
2022/09/02 03:25:28;;;;;;;2.67;1.73;;;13.40;99.90;;;;;;5003272;28;20096;-73
2022/09/02 03:27:54;;;;;;;3.05;2.00;;;13.40;99.90;;;;;;5000458;28;20042;-72
2022/09/02 03:30:25;;;;;;;2.40;1.67;;;13.30;99.90;;;;;;5002093;28;20053;-71
2022/09/02 03:32:52;;;;;;;3.75;2.13;;;13.30;99.90;;;;;;4989569;28;20046;-72
2022/09/02 03:35:20;;;;;;;3.03;1.90;;;13.30;99.90;;;;;;5009366;28;20038;-72
2022/09/02 03:37:47;;;;;;;3.70;2.22;;;13.20;99.90;;;;;;4995388;28;20107;-72
2022/09/02 03:40:17;;;;;;;4.20;2.35;;;13.20;99.90;;;;;;5014009;28;20120;-71
2022/09/02 03:42:42;;;;;;;5.18;2.00;;;13.20;99.90;;;;;;5012026;28;20712;-72
2022/09/02 03:45:09;;;;;;;3.20;1.92;;;13.10;99.90;;;;;;5006543;28;20377;-73
2022/09/02 03:47:42;;;;;;;3.42;2.08;;;13.10;99.90;;;;;;5013682;28;20045;-72
2022/09/02 03:50:08;;;;;;;4.80;1.92;;;13.20;99.90;;;;;;4990995;28;20061;-72
2022/09/02 03:52:35;;;;;;;6.90;2.33;;;13.10;99.90;;;;;;5004045;28;20046;-71
2022/09/02 03:55:03;;;;;;;6.72;2.25;;;13.00;99.90;;;;;;5010178;28;20046;-72
2022/09/02 03:57:28;;;;;;;3.70;2.30;;;13.00;99.90;;;;;;5013556;28;20050;-72
2022/09/02 03:59:54;;;;;;;4.95;2.30;;;13.00;99.90;;;;;;5012891;28;20399;-72
2022/09/02 04:02:20;;;;;;;3.67;2.10;;;13.00;99.90;;;;;;5001621;28;20490;-71
2022/09/02 04:04:46;;;;;;;4.57;2.28;;;12.90;99.90;;;;;;5011094;28;20480;-71
2022/09/02 04:07:11;;;;;;;4.90;2.35;;;12.90;99.90;;;;;;5008609;28;20041;-71
2022/09/02 04:09:37;;;;;;;4.20;2.03;;;12.90;99.90;;;;;;4994752;28;20050;-73
2022/09/02 04:12:04;;;;;;;5.10;2.55;;;12.90;99.90;;;;;;5001982;28;20042;-73
2022/09/02 04:14:30;;;;;;;2.55;1.85;;;12.90;99.90;;;;;;5006957;28;20046;-72
2022/09/02 04:16:56;;;;;;;3.25;2.05;;;12.80;99.90;;;;;;5012931;28;20125;-72
2022/09/02 04:19:22;;;;;;;3.75;2.15;;;12.80;99.90;;;;;;5012537;28;20124;-72
2022/09/02 04:21:47;;;;;;;2.80;2.00;;;12.80;99.90;;;;;;5017119;28;20041;-73
2022/09/02 04:24:17;;;;;;;3.83;2.35;;;12.80;99.90;;;;;;5005883;28;20049;-73
2022/09/02 04:26:44;;;;;;;3.55;2.10;;;12.80;99.90;;;;;;5010194;28;20076;-73
2022/09/02 04:29:12;;;;;;;3.90;2.00;;;12.70;99.90;;;;;;5010452;28;20052;-74
2022/09/02 04:31:38;;;;;;;5.53;2.58;;;12.70;99.90;;;;;;5010958;28;20037;-72
2022/09/02 04:34:05;;;;;;;3.08;1.95;;;12.70;99.90;;;;;;5006917;28;20061;-72
2022/09/02 04:36:33;;;;;;;3.05;2.10;;;12.60;99.90;;;;;;5008666;28;20112;-73
2022/09/02 04:38:59;;;;;;;3.30;2.33;;;12.70;99.90;;;;;;5002262;28;20053;-74
2022/09/02 04:41:29;;;;;;;3.90;2.20;;;12.60;99.90;;;;;;5005838;28;20588;-73
2022/09/02 04:43:56;;;;;;;3.10;2.00;;;12.70;99.90;;;;;;4990030;28;20064;-72
2022/09/02 04:46:23;;;;;;;3.53;2.20;;;12.60;99.90;;;;;;5007779;28;20070;-73
2022/09/02 04:48:50;;;;;;;3.65;2.10;;;12.60;99.90;;;;;;5006347;28;20069;-72
2022/09/02 04:51:21;;;;;;;4.47;2.10;;;12.60;99.90;;;;;;5011622;28;20156;-72
2022/09/02 04:53:49;;;;;;;3.38;1.98;;;12.60;99.90;;;;;;5011646;28;20046;-72
2022/09/02 04:56:17;;;;;;;6.65;2.00;;;12.60;99.90;;;;;;5008103;28;20054;-72
2022/09/02 04:58:44;;;;;;;5.20;2.13;;;12.60;99.90;;;;;;5008272;28;20046;-72
2022/09/02 05:01:15;;;;;;;6.72;2.50;;;12.60;99.90;;;;;;5002312;28;20049;-71
2022/09/02 05:03:41;;;;;;;5.40;2.15;;;12.60;99.90;;;;;;5004565;28;20136;-73
2022/09/02 05:06:09;;;;;;;4.53;2.25;;;12.60;99.90;;;;;;5007324;28;20508;-72
2022/09/02 05:08:35;;;;;;;7.10;2.53;;;12.60;99.90;;;;;;5006039;28;20053;-72
2022/09/02 05:11:06;;;;;;;4.10;2.33;;;12.60;99.90;;;;;;5002770;28;20128;-73
2022/09/02 05:13:31;;;;;;;7.07;2.60;;;12.60;99.90;;;;;;5006239;28;20038;-73
2022/09/02 05:15:57;;;;;;;4.00;2.20;;;12.60;99.90;;;;;;5009415;28;20044;-72
2022/09/02 05:18:23;;;;;;;5.85;2.40;;;12.60;99.90;;;;;;5010565;28;20073;-71
2022/09/02 05:20:49;;;;;;;6.60;2.50;;;12.50;99.90;;;;;;5011904;28;21835;-72
2022/09/02 05:23:15;;;;;;;6.53;2.42;;;12.60;99.90;;;;;;5010640;28;20065;-71
2022/09/02 05:25:41;;;;;;;4.20;2.25;;;12.60;99.90;;;;;;5011959;28;20042;-71
2022/09/02 05:28:07;;;;;;;3.15;2.28;;;12.60;99.90;;;;;;5006430;28;20041;-72
2022/09/02 05:30:38;;;;;;;5.53;2.25;;;12.60;99.90;;;;;;5010320;28;20425;-72
2022/09/02 05:33:05;;;;;;;5.28;2.55;;;12.60;99.90;;;;;;5012704;28;20049;-73
2022/09/02 05:35:31;;;;;;;4.38;2.00;;;12.60;99.90;;;;;;5010149;28;20041;-76
2022/09/02 05:37:57;;;;;;;2.88;2.30;;;12.60;99.90;;;;;;5022227;28;20429;-73
2022/09/02 05:40:23;;;;;;;3.95;2.55;;;12.70;99.90;;;;;;5005581;28;20044;-72
2022/09/02 05:42:49;;;;;;;3.60;2.25;;;12.60;99.90;;;;;;5006253;28;20034;-71
2022/09/02 05:45:15;;;;;;;3.25;2.00;;;12.60;99.90;;;;;;5004224;28;20060;-72
2022/09/02 05:47:40;;;;;;;4.63;2.30;;;12.70;99.90;;;;;;5007913;28;20042;-71
2022/09/02 05:50:07;;;;;;;4.47;2.25;;;12.70;99.90;;;;;;4989703;28;20050;-71
2022/09/02 05:52:33;;;;;;;4.28;2.22;;;12.80;99.90;;;;;;5004995;28;20042;-72
2022/09/02 05:54:59;;;;;;;4.75;2.50;;;12.80;99.90;;;;;;5011200;28;20038;-71
2022/09/02 05:57:25;;;;;;;4.13;2.60;;;12.80;99.90;;;;;;5010051;28;20050;-72
2022/09/02 05:59:55;;;;;;;11.35;2.20;;;12.90;99.90;;;;;;5010273;28;20140;-72
2022/09/02 06:02:23;;;;;;;7.78;2.30;;;12.90;99.90;;;;;;5007503;28;20425;-71
2022/09/02 06:04:52;;;;;;;2.90;2.33;;;13.00;99.90;;;;;;4992977;28;20466;-73
2022/09/02 06:07:21;;;;;;;4.35;2.40;;;13.00;99.90;;;;;;5009622;28;20715;-70
2022/09/02 06:09:48;;;;;;;5.88;2.20;;;13.00;99.90;;;;;;5020788;28;20462;-72
2022/09/02 06:12:18;;;;;;;4.57;2.50;;;13.20;99.90;;;;;;4995008;28;20108;-74
2022/09/02 06:14:46;;;;;;;3.63;2.10;;;13.30;99.90;;;;;;5002382;28;20606;-72
2022/09/02 06:17:15;;;;;;;5.20;2.10;;;13.50;99.90;;;;;;5011178;28;20046;-71
2022/09/02 06:19:41;;;;;;;4.20;2.15;;;13.70;99.90;;;;;;5009355;28;20064;-74
2022/09/02 06:22:07;;;;;;;2.70;2.10;;;13.90;99.90;;;;;;5015609;28;20370;-71
2022/09/02 06:24:32;;;;;;;3.45;2.25;;;13.90;99.90;;;;;;4999503;28;20154;-72
2022/09/02 06:27:00;;;;;;;3.28;2.30;;;14.00;99.90;;;;;;5010473;28;20038;-72
2022/09/02 06:29:27;;;;;;;6.75;2.13;;;14.00;99.90;;;;;;5014697;28;20061;-72
2022/09/02 06:31:55;;;;;;;2.92;2.05;;;14.00;99.90;;;;;;5016443;28;20038;-72
2022/09/02 06:34:25;;;;;;;3.65;2.13;;;14.10;99.90;;;;;;5007448;28;20059;-73
2022/09/02 06:36:51;;;;;;;3.47;2.10;;;14.30;99.90;;;;;;5015540;28;20126;-72
2022/09/02 06:39:19;;;;;;;6.15;2.22;;;14.60;99.90;;;;;;5003882;28;20573;-73
2022/09/02 06:41:47;;;;;;;3.33;1.80;;;15.10;99.90;;;;;;5002662;28;20039;-74
2022/09/02 06:44:20;;;;;;;3.10;2.00;;;15.60;99.90;;;;;;5003454;28;20045;-72
2022/09/02 06:46:52;;;;;;;4.13;2.00;;;16.00;99.90;;;;;;5009896;28;20375;-72
2022/09/02 06:49:18;;;;;;;6.35;2.42;;;16.30;99.90;;;;;;5008473;28;20073;-72
2022/09/02 06:51:46;;;;;;;3.45;1.70;;;16.80;99.90;;;;;;5014262;28;20065;-73
2022/09/02 06:54:15;;;;;;;5.47;2.00;;;17.00;99.90;;;;;;5010858;28;20069;-72
2022/09/02 06:56:43;;;;;;;3.38;1.85;;;17.20;99.90;;;;;;5022889;28;20418;-73
2022/09/02 06:59:11;;;;;;;4.30;1.80;;;17.30;99.90;;;;;;5035528;28;20042;-72
2022/09/02 07:01:37;;;;;;;2.90;1.90;;;17.20;99.90;;;;;;4988343;28;20049;-72
2022/09/02 07:06:51;;;;;;;3.50;2.13;;;17.00;99.90;;;;;;5028633;28;20107;-73
2022/09/02 07:09:20;;;;;;;4.18;2.10;;;17.00;99.90;;;;;;5021249;28;20038;-72
2022/09/02 07:11:48;;;;;;;5.65;2.10;;;16.90;99.90;;;;;;5027118;28;20064;-71
2022/09/02 07:14:15;;;;;;;4.22;2.50;;;16.80;99.90;;;;;;5004980;28;20056;-73
2022/09/02 07:16:48;;;;;;;7.63;2.08;;;16.80;99.90;;;;;;5028170;28;20049;-71
2022/09/02 07:19:14;;;;;;;3.55;2.28;;;16.70;99.90;;;;;;5015020;28;20045;-73
2022/09/02 07:21:40;;;;;;;4.50;2.22;;;16.80;99.90;;;;;;5007112;28;20042;-73
2022/09/02 07:24:07;;;;;;;3.58;2.20;;;16.70;99.90;;;;;;5022634;28;20134;-72
2022/09/02 07:26:33;;;;;;;4.57;2.13;;;16.80;99.90;;;;;;5025618;28;20038;-72
2022/09/02 07:28:59;;;;;;;4.30;1.90;;;16.80;99.90;;;;;;5009434;28;20046;-72
2022/09/02 07:31:26;;;;;;;5.72;2.30;;;16.90;99.90;;;;;;5010633;28;20046;-73
2022/09/02 07:33:55;;;;;;;6.07;2.00;;;16.90;99.90;;;;;;4993974;28;21451;-72
2022/09/02 07:36:21;;;;;;;5.85;2.20;;;17.10;99.90;;;;;;5014807;28;20292;-73
2022/09/02 07:38:47;;;;;;;3.67;1.80;;;17.10;99.90;;;;;;5031448;28;20056;-72
2022/09/02 07:41:13;;;;;;;3.28;1.95;;;17.30;99.90;;;;;;5032293;28;20049;-72
2022/09/02 07:43:40;;;;;;;4.20;1.88;;;17.40;99.90;;;;;;5015871;28;20053;-72
2022/09/02 07:46:06;;;;;;;5.93;2.22;;;17.50;99.90;;;;;;5028706;28;20049;-70
2022/09/02 07:48:32;;;;;;;3.35;1.80;;;17.70;99.90;;;;;;4996712;28;20065;-75
2022/09/02 07:50:59;;;;;;;4.65;2.10;;;17.80;99.80;;;;;;5021107;28;20056;-72
2022/09/02 07:53:25;;;;;;;3.75;1.90;;;18.00;99.60;;;;;;5014009;28;20517;-74
2022/09/02 07:55:51;;;;;;;4.32;1.98;;;18.20;99.60;;;;;;5027846;28;20061;-74
2022/09/02 07:58:20;;;;;;;5.70;2.10;;;18.30;99.10;;;;;;5031474;28;20485;-72
2022/09/02 08:00:46;;;;;;;5.47;1.77;;;18.40;99.00;;;;;;5015978;28;20060;-72
2022/09/02 08:03:13;;;;;;;4.95;1.77;;;18.60;98.60;;;;;;5026321;28;20045;-71
2022/09/02 08:05:45;;;;;;;5.88;1.80;;;18.60;98.00;;;;;;5027154;28;20055;-71
2022/09/02 08:08:12;;;;;;;2.45;1.80;;;18.80;98.30;;;;;;4989687;28;20038;-73
2022/09/02 08:10:38;;;;;;;2.83;1.63;;;18.90;98.00;;;;;;5030347;28;20046;-73
2022/09/02 08:13:05;;;;;;;3.85;2.05;;;19.10;98.00;;;;;;5030264;28;20157;-72
2022/09/02 08:15:32;;;;;;;3.63;1.70;;;19.20;97.70;;;;;;5027820;28;20065;-71
2022/09/02 08:17:58;;;;;;;7.55;1.77;;;19.30;97.50;;;;;;5014296;28;20046;-73
2022/09/02 08:20:25;;;;;;;2.80;1.80;;;19.50;97.50;;;;;;5032796;28;20033;-74
2022/09/02 08:22:53;;;;;;;7.32;1.80;;;19.60;96.80;;;;;;5026367;28;20054;-71
2022/09/02 08:25:19;;;;;;;3.00;1.77;;;19.70;96.70;;;;;;5024849;28;20068;-72
2022/09/02 08:27:45;;;;;;;7.50;1.73;;;19.70;96.70;;;;;;5030931;28;20045;-74
2022/09/02 08:30:11;;;;;;;6.18;1.80;;;19.90;96.70;;;;;;5012589;28;20064;-73
2022/09/02 08:32:38;;;;;;;4.20;1.52;;;20.00;96.40;;;;;;5017317;28;20049;-72
2022/09/02 08:35:05;;;;;;;3.33;1.80;;;20.10;96.00;;;;;;5016972;28;20081;-71
2022/09/02 08:37:32;;;;;;;4.70;1.95;;;20.40;96.10;;;;;;5020415;28;20053;-73
2022/09/02 08:39:58;;;;;;;7.03;2.10;;;20.50;96.00;;;;;;5031462;28;20041;-73
2022/09/02 08:42:32;;;;;;;2.72;1.65;;;20.60;95.70;;;;;;5018909;28;20068;-73
2022/09/02 08:45:27;;;;;;;2.92;1.50;;;20.80;95.10;;;;;;5017078;28;20477;-72
2022/09/02 08:48:20;;;;;;;8.38;1.73;;;20.90;94.50;;;;;;5007754;28;20100;-72
2022/09/02 08:50:48;;;;;;;10.65;2.33;;;21.00;93.30;;;;;;5017823;28;20109;-72
2022/09/02 08:53:38;;;;;;;6.63;1.75;;;21.10;93.40;;;;;;5044435;28;20037;-73
2022/09/02 08:56:07;;;;;;;5.32;1.80;;;21.30;92.70;;;;;;5018523;28;20089;-72
2022/09/02 08:58:41;;;;;;;7.93;2.03;;;21.30;91.80;;;;;;5027439;28;20050;-72
2022/09/02 09:01:29;;;;;;;4.43;2.08;;;21.30;91.60;;;;;;5032873;28;20042;-71
2022/09/02 09:04:15;;;;;;;6.35;1.88;;;21.40;92.00;;;;;;5034911;28;20054;-73
2022/09/02 09:06:53;;;;;;;4.18;1.70;;;21.50;91.60;;;;;;5034651;28;20050;-72
2022/09/02 09:09:27;;;;;;;6.00;1.60;;;21.60;91.30;;;;;;5011130;28;20077;-74
2022/09/02 09:12:21;;;;;;;7.32;1.90;;;21.70;91.10;;;;;;5017008;28;20530;-72
2022/09/02 09:15:10;;;;;;;4.57;1.83;;;21.80;90.60;;;;;;5009318;28;20133;-71
2022/09/02 09:17:57;;;;;;;7.22;1.80;;;21.90;90.70;;;;;;5034476;28;20400;-75
2022/09/02 09:20:26;;;;;;;6.45;1.80;;;22.00;90.20;;;;;;5026531;28;20056;-73
2022/09/02 09:22:57;;;;;;;4.85;1.80;;;22.10;90.20;;;;;;5034286;28;20573;-71
2022/09/02 09:25:28;;;;;;;3.28;1.85;;;22.10;89.10;;;;;;5034287;28;20512;-72
2022/09/02 09:27:59;;;;;;;4.25;1.65;;;22.20;88.90;;;;;;5034242;28;20046;-73
2022/09/02 09:30:25;;;;;;;8.13;2.13;;;22.30;88.30;;;;;;5030466;28;20052;-72
2022/09/02 09:32:53;;;;;;;6.03;2.33;;;22.30;87.10;;;;;;5015966;28;20116;-74
2022/09/02 09:35:21;;;;;;;15.73;1.95;;;22.40;87.30;;;;;;5015765;28;20106;-73
2022/09/02 09:37:49;;;;;;;4.10;1.90;;;22.40;87.20;;;;;;5032404;28;20075;-74
2022/09/02 09:40:23;;;;;;;5.63;1.65;;;22.60;87.20;;;;;;5031490;28;20084;-71
2022/09/02 09:43:04;;;;;;;3.70;1.73;;;22.60;86.60;;;;;;5008602;28;20130;-74
2022/09/02 09:45:37;;;;;;;5.35;1.90;;;22.80;86.40;;;;;;5032865;28;20516;-73
2022/09/02 09:48:16;;;;;;;4.50;1.73;;;22.80;85.80;;;;;;5026013;28;20046;-73
2022/09/02 09:50:43;;;;;;;3.20;1.60;;;23.00;84.10;;;;;;5016871;28;20081;-72
2022/09/02 09:53:21;;;;;;;4.85;2.00;;;23.00;82.70;;;;;;5016914;28;20037;-73
2022/09/02 09:56:13;;;;;;;5.55;1.83;;;23.00;81.10;;;;;;5015268;28;20077;-73
2022/09/02 09:58:39;;;;;;;8.90;1.85;;;23.00;80.80;;;;;;5015360;28;20126;-73
2022/09/02 10:01:20;;;;;;;8.15;3.22;;;23.10;81.00;;;;;;5014783;28;20102;-74
2022/09/02 10:04:03;;;;;;;4.38;1.70;;;23.20;80.00;;;;;;5018255;28;20136;-72
2022/09/02 10:06:32;;;;;;;9.23;1.85;;;23.40;80.30;;;;;;5033151;28;20041;-71
2022/09/02 10:09:21;;;;;;;4.53;1.83;;;23.40;80.30;;;;;;5010347;28;20041;-72
2022/09/02 10:11:58;;;;;;;6.80;1.88;;;23.60;79.30;;;;;;5031067;28;20049;-73
2022/09/02 10:14:35;;;;;;;10.95;2.35;;;23.80;79.10;;;;;;5021196;28;20045;-74
2022/09/02 10:17:25;;;;;;;3.42;1.60;;;24.00;79.30;;;;;;5025980;28;20056;-73
2022/09/02 10:19:58;;;;;;;3.90;1.77;;;24.10;79.10;;;;;;5025094;28;20087;-72
2022/09/02 10:22:43;;;;;;;4.70;1.95;;;24.30;78.80;;;;;;5014845;28;20045;-72
2022/09/02 10:25:27;;;;;;;6.28;1.88;;;24.50;77.60;;;;;;5008144;28;20132;-72
2022/09/02 10:28:20;;;;;;;7.43;1.75;;;24.70;77.20;;;;;;5013203;28;20048;-73
2022/09/02 10:31:33;;;;;;;7.55;2.20;;;24.90;75.30;;;;;;5022411;28;20281;-70
2022/09/02 10:34:30;;;;;;;6.60;1.80;;;25.20;75.40;;;;;;4989301;28;20055;-72
2022/09/02 10:37:20;;;;;;;6.25;1.63;;;25.50;74.10;;;;;;5029422;28;20041;-73
2022/09/02 10:40:15;;;;;;;8.00;2.17;;;25.80;72.40;;;;;;5010778;28;20049;-73
2022/09/02 10:43:04;;;;;;;3.08;1.75;;;25.70;70.90;;;;;;4998215;28;20045;-73
2022/09/02 10:45:33;;;;;;;4.75;1.30;;;25.80;70.60;;;;;;5013655;28;20045;-74
2022/09/02 10:48:05;;;;;;;4.82;1.63;;;25.90;70.10;;;;;;5026842;28;20041;-72
2022/09/02 10:50:59;;;;;;;3.78;1.48;;;25.80;68.50;;;;;;5013027;28;20034;-75
2022/09/02 10:53:44;;;;;;;3.95;1.73;;;25.90;68.20;;;;;;4992361;28;20057;-74
2022/09/02 10:56:12;;;;;;;7.28;1.95;;;26.20;70.00;;;;;;5002141;28;20095;-72
2022/09/02 10:58:50;;;;;;;4.28;1.48;;;26.50;69.00;;;;;;5032498;28;20052;-73
2022/09/02 11:01:21;;;;;;;;;;;26.60;68.30;;;;;;5021445;28;20057;-73
2022/09/02 11:03:58;;;;;;;6.35;2.00;;;26.80;67.60;;;;;;5029281;28;20392;-73
2022/09/02 11:06:29;;;;;;;10.52;1.77;;;26.90;66.40;;;;;;5026087;28;20067;-73
2022/09/02 11:09:00;;;;;;;4.03;1.70;;;26.80;65.90;;;;;;5014512;28;20049;-72
2022/09/02 11:11:37;;;;;;;5.90;1.40;;;26.80;66.20;;;;;;5028602;28;20139;-72
2022/09/02 11:14:25;;;;;;;5.97;1.50;;;26.70;64.50;;;;;;4992805;28;20046;-74
2022/09/02 11:17:04;;;;;;;6.05;1.70;;;26.90;65.60;;;;;;5001283;28;20049;-72
2022/09/02 11:19:42;;;;;;;3.35;1.80;;;26.90;64.60;;;;;;5024690;28;20092;-75
2022/09/02 11:22:32;;;;;;;4.70;1.65;;;27.00;65.20;;;;;;5029820;28;20060;-72
2022/09/02 11:25:20;;;;;;;12.00;2.00;;;27.10;64.60;;;;;;5000923;28;20478;-73
2022/09/02 11:27:55;;;;;;;2.08;1.10;;;27.10;62.50;;;;;;5012697;28;20124;-71
2022/09/02 11:30:25;;;;;;;4.30;1.73;;;26.90;62.40;;;;;;5004534;28;20045;-74
2022/09/02 11:33:13;;;;;;;4.03;1.48;;;27.10;63.40;;;;;;5032450;28;20046;-73
2022/09/02 11:35:39;;;;;;;;;;;27.20;62.80;;;;;;5020456;28;20053;-76
2022/09/02 11:38:20;;;;;;;3.90;1.77;;;27.00;61.50;;;;;;5030329;28;20011;-74
2022/09/02 11:41:05;;;;;;;4.38;1.65;;;27.20;62.20;;;;;;5020873;28;20049;-72
2022/09/02 11:43:30;;;;;;;4.10;1.50;;;27.40;60.10;;;;;;5014353;28;20050;-74
2022/09/02 11:46:35;;;;;;;3.17;1.42;;;27.40;60.90;;;;;;4997031;28;20041;-74
2022/09/02 11:49:20;;;;;;;2.55;1.30;;;27.60;59.40;;;;;;5021466;28;20041;-75
2022/09/02 11:51:57;;;;;;;6.90;1.50;;;27.60;59.60;;;;;;5031213;28;20033;-73
2022/09/02 11:54:28;;;;;;;6.10;1.52;;;27.60;60.00;;;;;;5032562;28;20045;-74
2022/09/02 11:57:01;;;;;;;6.03;1.40;;;27.70;61.00;;;;;;4996958;28;20064;-74
2022/09/02 11:59:51;;;;;;;5.70;1.70;;;27.80;61.00;;;;;;5036092;28;20042;-72
2022/09/02 12:02:39;;;;;;;4.40;2.05;;;27.70;60.70;;;;;;5017371;28;20045;-75
2022/09/02 12:05:30;;;;;;;5.37;1.50;;;27.80;60.10;;;;;;5001050;28;20042;-73
2022/09/02 12:08:03;;;;;;;2.90;1.50;;;27.80;60.40;;;;;;5031218;28;20120;-73
2022/09/02 12:10:46;;;;;;;5.72;1.73;;;28.10;61.00;;;;;;5033234;28;20073;-76
2022/09/02 12:13:42;;;;;;;5.03;1.38;;;28.40;60.20;;;;;;5010479;28;20046;-74
2022/09/02 12:16:14;;;;;;;4.93;1.40;;;28.50;58.60;;;;;;5017639;28;20070;-75
2022/09/02 12:18:53;;;;;;;4.85;1.58;;;28.70;59.20;;;;;;4990981;28;20054;-74
2022/09/02 12:21:24;;;;;;;5.60;2.05;;;28.70;58.80;;;;;;5000010;28;20095;-74
2022/09/02 12:23:55;;;;;;;4.38;1.60;;;28.60;59.00;;;;;;5035739;28;20073;-72
2022/09/02 12:26:39;;;;;;;3.83;1.50;;;28.70;59.00;;;;;;5024633;28;20044;-73
2022/09/02 12:29:17;;;;;;;5.22;1.40;;;28.80;58.20;;;;;;5022197;28;20057;-73
2022/09/02 12:31:48;;;;;;;4.35;1.58;;;28.60;58.10;;;;;;5026280;28;20481;-74
2022/09/02 12:34:20;;;;;;;3.10;1.42;;;28.60;57.30;;;;;;4999984;28;20064;-75
2022/09/02 12:36:56;;;;;;;7.47;1.20;;;28.40;57.30;;;;;;5021384;28;20055;-76
2022/09/02 12:39:21;;;;;;;4.68;1.70;;;28.60;57.40;;;;;;5014303;28;20049;-72
2022/09/02 12:42:09;;;;;;;4.47;1.60;;;28.80;57.10;;;;;;5016740;28;20045;-73
2022/09/02 12:44:47;;;;;;;3.88;1.67;;;28.70;56.10;;;;;;5007268;28;20502;-73
2022/09/02 12:47:18;;;;;;;7.10;1.42;;;28.90;56.40;;;;;;5030771;28;20060;-72
2022/09/02 12:49:50;;;;;;;10.75;1.80;;;29.10;56.70;;;;;;5029589;28;20034;-72
2022/09/02 12:52:34;;;;;;;3.42;1.50;;;29.30;56.50;;;;;;5025922;28;20513;-73
2022/09/02 12:55:20;;;;;;;5.10;1.35;;;29.20;54.70;;;;;;5031701;28;20048;-74
2022/09/02 12:58:03;;;;;;;3.47;1.38;;;29.40;55.20;;;;;;5000111;28;20521;-73
2022/09/02 13:01:15;;;;;;;6.65;1.20;;;29.50;56.10;;;;;;5007145;28;20042;-73
2022/09/02 13:03:55;;;;;;;5.95;1.75;;;29.30;54.50;;;;;;5034077;28;20133;-72
2022/09/02 13:06:35;;;;;;;3.03;1.33;;;28.60;54.40;;;;;;5034689;28;20095;-71
2022/09/02 13:09:22;;;;;;;2.33;1.20;;;28.10;55.00;;;;;;5033625;28;20574;-72
2022/09/02 13:12:19;;;;;;;4.95;1.20;;;27.90;55.60;;;;;;5031442;28;20041;-73